sensor_id;sensor_type;location;lat;lon;timestamp;P1;durP1;ratioP1;P2;durP2;ratioP2
48363;SDS011;34170;54.364;18.582;2022-10-17T00:00:58;6.97;;;5.03;;
48363;SDS011;34170;54.364;18.582;2022-10-17T00:03:33;7.30;;;4.72;;
48363;SDS011;34170;54.364;18.582;2022-10-17T00:06:07;7.13;;;4.95;;
48363;SDS011;34170;54.364;18.582;2022-10-17T00:08:39;6.85;;;4.45;;
48363;SDS011;34170;54.364;18.582;2022-10-17T00:11:16;6.40;;;4.78;;
48363;SDS011;34170;54.364;18.582;2022-10-17T00:13:49;8.90;;;5.18;;
48363;SDS011;34170;54.364;18.582;2022-10-17T00:16:27;7.17;;;5.10;;
48363;SDS011;34170;54.364;18.582;2022-10-17T00:18:56;8.35;;;5.45;;
48363;SDS011;34170;54.364;18.582;2022-10-17T00:21:23;8.18;;;5.25;;
48363;SDS011;34170;54.364;18.582;2022-10-17T00:23:52;7.07;;;5.78;;
48363;SDS011;34170;54.364;18.582;2022-10-17T00:26:21;6.90;;;5.35;;
48363;SDS011;34170;54.364;18.582;2022-10-17T00:28:49;9.45;;;5.68;;
48363;SDS011;34170;54.364;18.582;2022-10-17T00:31:18;6.63;;;4.90;;
48363;SDS011;34170;54.364;18.582;2022-10-17T00:33:46;8.32;;;5.03;;
48363;SDS011;34170;54.364;18.582;2022-10-17T00:36:16;6.47;;;5.00;;
48363;SDS011;34170;54.364;18.582;2022-10-17T00:38:46;8.73;;;5.00;;
48363;SDS011;34170;54.364;18.582;2022-10-17T00:41:17;6.80;;;5.10;;
48363;SDS011;34170;54.364;18.582;2022-10-17T00:46:41;9.90;;;5.18;;
48363;SDS011;34170;54.364;18.582;2022-10-17T00:49:09;7.65;;;4.90;;
48363;SDS011;34170;54.364;18.582;2022-10-17T00:51:45;8.93;;;4.05;;
48363;SDS011;34170;54.364;18.582;2022-10-17T00:54:17;6.72;;;4.53;;
48363;SDS011;34170;54.364;18.582;2022-10-17T00:56:49;6.30;;;4.88;;
48363;SDS011;34170;54.364;18.582;2022-10-17T00:59:18;5.45;;;4.07;;
48363;SDS011;34170;54.364;18.582;2022-10-17T01:01:50;7.45;;;4.40;;
48363;SDS011;34170;54.364;18.582;2022-10-17T01:04:22;5.43;;;4.00;;
48363;SDS011;34170;54.364;18.582;2022-10-17T01:06:50;11.40;;;5.13;;
48363;SDS011;34170;54.364;18.582;2022-10-17T01:09:17;7.05;;;4.10;;
48363;SDS011;34170;54.364;18.582;2022-10-17T01:14:40;6.03;;;4.07;;
48363;SDS011;34170;54.364;18.582;2022-10-17T01:25:51;6.07;;;3.85;;
48363;SDS011;34170;54.364;18.582;2022-10-17T01:31:15;5.72;;;3.67;;
48363;SDS011;34170;54.364;18.582;2022-10-17T01:42:12;6.15;;;4.13;;
48363;SDS011;34170;54.364;18.582;2022-10-17T01:44:57;6.93;;;3.83;;
48363;SDS011;34170;54.364;18.582;2022-10-17T01:47:30;5.70;;;4.00;;
48363;SDS011;34170;54.364;18.582;2022-10-17T01:50:02;7.90;;;3.85;;
48363;SDS011;34170;54.364;18.582;2022-10-17T01:52:38;5.65;;;4.28;;
48363;SDS011;34170;54.364;18.582;2022-10-17T01:55:11;5.10;;;3.53;;
48363;SDS011;34170;54.364;18.582;2022-10-17T01:57:43;6.05;;;3.92;;
48363;SDS011;34170;54.364;18.582;2022-10-17T02:00:18;6.75;;;4.18;;
48363;SDS011;34170;54.364;18.582;2022-10-17T02:02:55;7.47;;;4.47;;
48363;SDS011;34170;54.364;18.582;2022-10-17T02:05:30;5.55;;;3.97;;
48363;SDS011;34170;54.364;18.582;2022-10-17T02:08:01;7.07;;;3.97;;
48363;SDS011;34170;54.364;18.582;2022-10-17T02:10:37;5.60;;;3.60;;
48363;SDS011;34170;54.364;18.582;2022-10-17T02:22:02;5.45;;;4.25;;
48363;SDS011;34170;54.364;18.582;2022-10-17T02:27:32;8.15;;;3.83;;
48363;SDS011;34170;54.364;18.582;2022-10-17T02:30:19;6.65;;;4.00;;
48363;SDS011;34170;54.364;18.582;2022-10-17T02:32:57;5.10;;;3.90;;
48363;SDS011;34170;54.364;18.582;2022-10-17T02:35:29;6.70;;;3.70;;
48363;SDS011;34170;54.364;18.582;2022-10-17T02:38:01;7.03;;;4.15;;
48363;SDS011;34170;54.364;18.582;2022-10-17T02:40:31;7.90;;;3.97;;
48363;SDS011;34170;54.364;18.582;2022-10-17T02:42:59;6.70;;;4.15;;
48363;SDS011;34170;54.364;18.582;2022-10-17T02:45:29;6.60;;;4.07;;
48363;SDS011;34170;54.364;18.582;2022-10-17T02:48:05;5.82;;;3.65;;
48363;SDS011;34170;54.364;18.582;2022-10-17T02:51:19;5.93;;;4.13;;
48363;SDS011;34170;54.364;18.582;2022-10-17T02:56:52;6.13;;;4.15;;
48363;SDS011;34170;54.364;18.582;2022-10-17T02:59:23;4.53;;;3.60;;
48363;SDS011;34170;54.364;18.582;2022-10-17T03:01:53;5.97;;;4.00;;
48363;SDS011;34170;54.364;18.582;2022-10-17T03:04:20;8.60;;;4.28;;
48363;SDS011;34170;54.364;18.582;2022-10-17T03:06:47;5.68;;;3.50;;
48363;SDS011;34170;54.364;18.582;2022-10-17T03:09:17;8.40;;;4.15;;
48363;SDS011;34170;54.364;18.582;2022-10-17T03:11:44;6.30;;;3.55;;
48363;SDS011;34170;54.364;18.582;2022-10-17T03:14:12;5.25;;;3.45;;
48363;SDS011;34170;54.364;18.582;2022-10-17T03:16:39;5.03;;;3.63;;
48363;SDS011;34170;54.364;18.582;2022-10-17T03:19:07;7.00;;;3.65;;
48363;SDS011;34170;54.364;18.582;2022-10-17T03:21:35;6.55;;;3.45;;
48363;SDS011;34170;54.364;18.582;2022-10-17T03:24:05;4.95;;;3.42;;
48363;SDS011;34170;54.364;18.582;2022-10-17T03:26:32;4.93;;;3.63;;
48363;SDS011;34170;54.364;18.582;2022-10-17T03:29:01;6.07;;;3.58;;
48363;SDS011;34170;54.364;18.582;2022-10-17T03:31:29;8.32;;;3.55;;
48363;SDS011;34170;54.364;18.582;2022-10-17T03:34:00;10.63;;;3.75;;
48363;SDS011;34170;54.364;18.582;2022-10-17T03:36:27;9.07;;;3.95;;
48363;SDS011;34170;54.364;18.582;2022-10-17T03:38:55;4.97;;;3.58;;
48363;SDS011;34170;54.364;18.582;2022-10-17T03:41:23;4.90;;;3.50;;
48363;SDS011;34170;54.364;18.582;2022-10-17T03:43:51;7.80;;;4.18;;
48363;SDS011;34170;54.364;18.582;2022-10-17T03:46:20;4.68;;;3.65;;
48363;SDS011;34170;54.364;18.582;2022-10-17T03:48:47;8.38;;;4.45;;
48363;SDS011;34170;54.364;18.582;2022-10-17T03:51:15;6.10;;;4.43;;
48363;SDS011;34170;54.364;18.582;2022-10-17T03:53:48;6.05;;;4.25;;
48363;SDS011;34170;54.364;18.582;2022-10-17T03:56:16;7.57;;;4.25;;
48363;SDS011;34170;54.364;18.582;2022-10-17T03:59:12;8.07;;;4.28;;
48363;SDS011;34170;54.364;18.582;2022-10-17T04:01:43;6.57;;;4.32;;
48363;SDS011;34170;54.364;18.582;2022-10-17T04:04:11;6.75;;;4.32;;
48363;SDS011;34170;54.364;18.582;2022-10-17T04:06:39;5.80;;;4.25;;
48363;SDS011;34170;54.364;18.582;2022-10-17T04:09:06;6.38;;;4.47;;
48363;SDS011;34170;54.364;18.582;2022-10-17T04:11:43;8.05;;;4.30;;
48363;SDS011;34170;54.364;18.582;2022-10-17T04:14:11;8.30;;;4.28;;
48363;SDS011;34170;54.364;18.582;2022-10-17T04:16:38;5.70;;;3.90;;
48363;SDS011;34170;54.364;18.582;2022-10-17T04:19:12;4.95;;;3.38;;
48363;SDS011;34170;54.364;18.582;2022-10-17T04:21:43;6.78;;;3.88;;
48363;SDS011;34170;54.364;18.582;2022-10-17T04:24:13;5.43;;;3.40;;
48363;SDS011;34170;54.364;18.582;2022-10-17T04:26:48;5.88;;;3.33;;
48363;SDS011;34170;54.364;18.582;2022-10-17T04:29:18;6.22;;;3.25;;
48363;SDS011;34170;54.364;18.582;2022-10-17T04:31:53;6.47;;;3.63;;
48363;SDS011;34170;54.364;18.582;2022-10-17T04:34:32;5.35;;;3.40;;
48363;SDS011;34170;54.364;18.582;2022-10-17T04:37:04;8.13;;;3.60;;
48363;SDS011;34170;54.364;18.582;2022-10-17T04:39:33;6.05;;;3.45;;
48363;SDS011;34170;54.364;18.582;2022-10-17T04:42:03;7.60;;;3.58;;
48363;SDS011;34170;54.364;18.582;2022-10-17T04:44:30;6.85;;;3.70;;
48363;SDS011;34170;54.364;18.582;2022-10-17T04:46:59;8.75;;;3.50;;
48363;SDS011;34170;54.364;18.582;2022-10-17T04:49:27;5.82;;;3.75;;
48363;SDS011;34170;54.364;18.582;2022-10-17T04:52:00;6.47;;;3.60;;
48363;SDS011;34170;54.364;18.582;2022-10-17T04:54:37;5.70;;;3.55;;
48363;SDS011;34170;54.364;18.582;2022-10-17T04:57:07;6.05;;;3.67;;
48363;SDS011;34170;54.364;18.582;2022-10-17T04:59:35;6.90;;;3.92;;
48363;SDS011;34170;54.364;18.582;2022-10-17T05:02:32;7.25;;;4.30;;
48363;SDS011;34170;54.364;18.582;2022-10-17T05:05:02;7.32;;;4.53;;
48363;SDS011;34170;54.364;18.582;2022-10-17T05:07:30;6.82;;;4.35;;
48363;SDS011;34170;54.364;18.582;2022-10-17T05:10:01;7.00;;;4.47;;
48363;SDS011;34170;54.364;18.582;2022-10-17T05:12:30;11.40;;;4.90;;
48363;SDS011;34170;54.364;18.582;2022-10-17T05:14:58;7.82;;;4.70;;
48363;SDS011;34170;54.364;18.582;2022-10-17T05:17:28;6.90;;;4.47;;
48363;SDS011;34170;54.364;18.582;2022-10-17T05:19:56;9.27;;;5.10;;
48363;SDS011;34170;54.364;18.582;2022-10-17T05:22:23;6.43;;;4.88;;
48363;SDS011;34170;54.364;18.582;2022-10-17T05:24:51;9.13;;;4.60;;
48363;SDS011;34170;54.364;18.582;2022-10-17T05:27:18;7.35;;;4.05;;
48363;SDS011;34170;54.364;18.582;2022-10-17T05:29:45;6.10;;;4.35;;
48363;SDS011;34170;54.364;18.582;2022-10-17T05:32:19;6.05;;;3.38;;
48363;SDS011;34170;54.364;18.582;2022-10-17T05:34:47;5.82;;;3.33;;
48363;SDS011;34170;54.364;18.582;2022-10-17T05:37:14;4.93;;;2.80;;
48363;SDS011;34170;54.364;18.582;2022-10-17T05:39:46;5.30;;;3.00;;
48363;SDS011;34170;54.364;18.582;2022-10-17T05:42:17;6.07;;;2.90;;
48363;SDS011;34170;54.364;18.582;2022-10-17T05:44:45;5.25;;;2.47;;
48363;SDS011;34170;54.364;18.582;2022-10-17T05:47:14;5.88;;;2.42;;
48363;SDS011;34170;54.364;18.582;2022-10-17T05:49:42;4.20;;;2.83;;
48363;SDS011;34170;54.364;18.582;2022-10-17T05:52:20;6.85;;;2.88;;
48363;SDS011;34170;54.364;18.582;2022-10-17T05:55:05;4.47;;;2.17;;
48363;SDS011;34170;54.364;18.582;2022-10-17T05:57:32;8.40;;;2.50;;
48363;SDS011;34170;54.364;18.582;2022-10-17T06:00:01;8.00;;;2.08;;
48363;SDS011;34170;54.364;18.582;2022-10-17T06:02:40;8.75;;;2.67;;
48363;SDS011;34170;54.364;18.582;2022-10-17T06:05:11;7.50;;;2.90;;
48363;SDS011;34170;54.364;18.582;2022-10-17T06:07:38;7.20;;;2.38;;
48363;SDS011;34170;54.364;18.582;2022-10-17T06:10:07;5.32;;;2.20;;
48363;SDS011;34170;54.364;18.582;2022-10-17T06:12:35;7.28;;;2.50;;
48363;SDS011;34170;54.364;18.582;2022-10-17T06:15:02;4.90;;;2.20;;
48363;SDS011;34170;54.364;18.582;2022-10-17T06:17:30;6.30;;;2.22;;
48363;SDS011;34170;54.364;18.582;2022-10-17T06:19:58;5.05;;;2.10;;
48363;SDS011;34170;54.364;18.582;2022-10-17T06:22:25;5.35;;;2.20;;
48363;SDS011;34170;54.364;18.582;2022-10-17T06:24:55;8.00;;;2.13;;
48363;SDS011;34170;54.364;18.582;2022-10-17T06:27:22;5.72;;;1.92;;
48363;SDS011;34170;54.364;18.582;2022-10-17T06:29:50;5.57;;;1.63;;
48363;SDS011;34170;54.364;18.582;2022-10-17T06:32:17;8.88;;;2.05;;
48363;SDS011;34170;54.364;18.582;2022-10-17T06:34:46;4.80;;;1.70;;
48363;SDS011;34170;54.364;18.582;2022-10-17T06:37:14;6.28;;;2.00;;
48363;SDS011;34170;54.364;18.582;2022-10-17T06:39:42;5.90;;;1.85;;
48363;SDS011;34170;54.364;18.582;2022-10-17T06:42:12;5.05;;;1.83;;
48363;SDS011;34170;54.364;18.582;2022-10-17T06:44:49;6.65;;;1.35;;
48363;SDS011;34170;54.364;18.582;2022-10-17T06:47:31;5.50;;;1.45;;
48363;SDS011;34170;54.364;18.582;2022-10-17T06:50:05;7.63;;;1.40;;
48363;SDS011;34170;54.364;18.582;2022-10-17T06:52:55;4.73;;;1.40;;
48363;SDS011;34170;54.364;18.582;2022-10-17T06:55:41;4.63;;;1.40;;
48363;SDS011;34170;54.364;18.582;2022-10-17T06:58:22;6.38;;;1.73;;
48363;SDS011;34170;54.364;18.582;2022-10-17T07:01:07;5.75;;;1.50;;
48363;SDS011;34170;54.364;18.582;2022-10-17T07:03:37;8.98;;;1.80;;
48363;SDS011;34170;54.364;18.582;2022-10-17T07:06:05;6.75;;;2.17;;
48363;SDS011;34170;54.364;18.582;2022-10-17T07:08:33;8.98;;;1.92;;
48363;SDS011;34170;54.364;18.582;2022-10-17T07:11:12;4.63;;;1.50;;
48363;SDS011;34170;54.364;18.582;2022-10-17T07:13:41;7.03;;;1.50;;
48363;SDS011;34170;54.364;18.582;2022-10-17T07:16:09;4.43;;;1.17;;
48363;SDS011;34170;54.364;18.582;2022-10-17T07:18:38;4.22;;;1.23;;
48363;SDS011;34170;54.364;18.582;2022-10-17T07:21:06;5.43;;;1.48;;
48363;SDS011;34170;54.364;18.582;2022-10-17T07:23:35;5.15;;;1.77;;
48363;SDS011;34170;54.364;18.582;2022-10-17T07:26:04;6.30;;;1.52;;
48363;SDS011;34170;54.364;18.582;2022-10-17T07:28:35;8.48;;;1.60;;
48363;SDS011;34170;54.364;18.582;2022-10-17T07:31:17;5.60;;;1.25;;
48363;SDS011;34170;54.364;18.582;2022-10-17T07:33:46;6.43;;;1.48;;
48363;SDS011;34170;54.364;18.582;2022-10-17T07:36:13;6.22;;;1.40;;
48363;SDS011;34170;54.364;18.582;2022-10-17T07:38:41;7.80;;;1.67;;
48363;SDS011;34170;54.364;18.582;2022-10-17T07:41:10;8.68;;;2.17;;
48363;SDS011;34170;54.364;18.582;2022-10-17T07:43:45;6.25;;;1.55;;
48363;SDS011;34170;54.364;18.582;2022-10-17T07:46:15;5.65;;;1.55;;
48363;SDS011;34170;54.364;18.582;2022-10-17T07:48:43;4.82;;;1.25;;
48363;SDS011;34170;54.364;18.582;2022-10-17T07:51:11;8.38;;;1.75;;
48363;SDS011;34170;54.364;18.582;2022-10-17T07:53:38;4.82;;;1.15;;
48363;SDS011;34170;54.364;18.582;2022-10-17T07:56:11;10.60;;;1.92;;
48363;SDS011;34170;54.364;18.582;2022-10-17T07:58:38;6.22;;;2.13;;
48363;SDS011;34170;54.364;18.582;2022-10-17T08:01:09;12.77;;;2.28;;
48363;SDS011;34170;54.364;18.582;2022-10-17T08:03:45;9.48;;;2.58;;
48363;SDS011;34170;54.364;18.582;2022-10-17T08:06:17;10.10;;;1.88;;
48363;SDS011;34170;54.364;18.582;2022-10-17T08:08:45;6.97;;;2.05;;
48363;SDS011;34170;54.364;18.582;2022-10-17T08:11:15;7.85;;;2.33;;
48363;SDS011;34170;54.364;18.582;2022-10-17T08:13:42;11.43;;;2.30;;
48363;SDS011;34170;54.364;18.582;2022-10-17T08:16:12;8.52;;;1.73;;
48363;SDS011;34170;54.364;18.582;2022-10-17T08:18:40;5.90;;;1.80;;
48363;SDS011;34170;54.364;18.582;2022-10-17T08:21:09;7.30;;;1.95;;
48363;SDS011;34170;54.364;18.582;2022-10-17T08:23:39;6.75;;;1.98;;
48363;SDS011;34170;54.364;18.582;2022-10-17T08:26:07;10.13;;;2.38;;
48363;SDS011;34170;54.364;18.582;2022-10-17T08:28:40;6.45;;;1.45;;
48363;SDS011;34170;54.364;18.582;2022-10-17T08:31:17;8.93;;;1.70;;
48363;SDS011;34170;54.364;18.582;2022-10-17T08:33:46;5.18;;;1.27;;
48363;SDS011;34170;54.364;18.582;2022-10-17T08:36:17;9.20;;;2.03;;
48363;SDS011;34170;54.364;18.582;2022-10-17T08:38:47;5.47;;;1.73;;
48363;SDS011;34170;54.364;18.582;2022-10-17T08:46:41;6.43;;;1.17;;
48363;SDS011;34170;54.364;18.582;2022-10-17T08:49:21;5.60;;;0.98;;
48363;SDS011;34170;54.364;18.582;2022-10-17T08:52:33;6.50;;;1.13;;
48363;SDS011;34170;54.364;18.582;2022-10-17T08:55:33;6.53;;;1.48;;
48363;SDS011;34170;54.364;18.582;2022-10-17T08:58:22;6.78;;;1.75;;
48363;SDS011;34170;54.364;18.582;2022-10-17T09:01:04;6.43;;;2.00;;
48363;SDS011;34170;54.364;18.582;2022-10-17T09:09:38;6.15;;;1.90;;
48363;SDS011;34170;54.364;18.582;2022-10-17T09:21:01;6.70;;;1.83;;
48363;SDS011;34170;54.364;18.582;2022-10-17T09:23:42;7.05;;;2.10;;
48363;SDS011;34170;54.364;18.582;2022-10-17T09:26:13;5.07;;;2.05;;
48363;SDS011;34170;54.364;18.582;2022-10-17T09:28:41;7.10;;;2.22;;
48363;SDS011;34170;54.364;18.582;2022-10-17T09:33:43;6.20;;;2.50;;
48363;SDS011;34170;54.364;18.582;2022-10-17T09:36:31;6.47;;;2.22;;
48363;SDS011;34170;54.364;18.582;2022-10-17T09:39:01;7.50;;;2.70;;
48363;SDS011;34170;54.364;18.582;2022-10-17T09:41:41;6.28;;;2.40;;
48363;SDS011;34170;54.364;18.582;2022-10-17T09:44:15;5.55;;;2.20;;
48363;SDS011;34170;54.364;18.582;2022-10-17T09:46:50;7.80;;;2.53;;
48363;SDS011;34170;54.364;18.582;2022-10-17T09:49:40;9.63;;;2.65;;
48363;SDS011;34170;54.364;18.582;2022-10-17T09:52:20;8.40;;;2.88;;
48363;SDS011;34170;54.364;18.582;2022-10-17T09:57:24;9.20;;;3.20;;
48363;SDS011;34170;54.364;18.582;2022-10-17T09:59:56;6.60;;;2.95;;
48363;SDS011;34170;54.364;18.582;2022-10-17T10:02:27;6.13;;;3.70;;
48363;SDS011;34170;54.364;18.582;2022-10-17T10:05:01;9.83;;;3.90;;
48363;SDS011;34170;54.364;18.582;2022-10-17T10:07:36;8.50;;;3.90;;
48363;SDS011;34170;54.364;18.582;2022-10-17T10:10:06;9.52;;;4.32;;
48363;SDS011;34170;54.364;18.582;2022-10-17T10:15:42;9.93;;;4.30;;
48363;SDS011;34170;54.364;18.582;2022-10-17T10:21:37;10.07;;;4.43;;
48363;SDS011;34170;54.364;18.582;2022-10-17T10:23:42;9.25;;;4.60;;
48363;SDS011;34170;54.364;18.582;2022-10-17T10:26:19;9.15;;;3.92;;
48363;SDS011;34170;54.364;18.582;2022-10-17T10:31:24;8.40;;;3.92;;
48363;SDS011;34170;54.364;18.582;2022-10-17T10:33:54;13.35;;;5.45;;
48363;SDS011;34170;54.364;18.582;2022-10-17T10:36:23;11.75;;;5.18;;
48363;SDS011;34170;54.364;18.582;2022-10-17T10:38:51;8.40;;;4.53;;
48363;SDS011;34170;54.364;18.582;2022-10-17T10:41:24;12.10;;;5.10;;
48363;SDS011;34170;54.364;18.582;2022-10-17T10:43:53;52.90;;;37.60;;
48363;SDS011;34170;54.364;18.582;2022-10-17T10:46:25;8.43;;;4.47;;
48363;SDS011;34170;54.364;18.582;2022-10-17T10:48:55;6.90;;;4.57;;
48363;SDS011;34170;54.364;18.582;2022-10-17T10:54:15;8.18;;;4.30;;
48363;SDS011;34170;54.364;18.582;2022-10-17T10:56:51;7.22;;;4.32;;
48363;SDS011;34170;54.364;18.582;2022-10-17T11:02:22;10.98;;;6.20;;
48363;SDS011;34170;54.364;18.582;2022-10-17T11:05:42;11.88;;;5.93;;
48363;SDS011;34170;54.364;18.582;2022-10-17T11:11:06;8.85;;;5.68;;
48363;SDS011;34170;54.364;18.582;2022-10-17T11:16:36;10.20;;;6.40;;
48363;SDS011;34170;54.364;18.582;2022-10-17T11:21:46;10.57;;;6.53;;
48363;SDS011;34170;54.364;18.582;2022-10-17T11:24:23;8.55;;;6.05;;
48363;SDS011;34170;54.364;18.582;2022-10-17T11:29:32;12.20;;;6.43;;
48363;SDS011;34170;54.364;18.582;2022-10-17T11:32:04;10.55;;;6.65;;
48363;SDS011;34170;54.364;18.582;2022-10-17T11:34:39;11.27;;;7.82;;
48363;SDS011;34170;54.364;18.582;2022-10-17T11:37:16;10.77;;;8.43;;
48363;SDS011;34170;54.364;18.582;2022-10-17T11:39:51;13.38;;;8.55;;
48363;SDS011;34170;54.364;18.582;2022-10-17T11:44:58;10.80;;;7.18;;
48363;SDS011;34170;54.364;18.582;2022-10-17T11:47:33;14.45;;;8.02;;
48363;SDS011;34170;54.364;18.582;2022-10-17T11:53:18;11.50;;;8.23;;
48363;SDS011;34170;54.364;18.582;2022-10-17T11:55:47;12.52;;;8.02;;
48363;SDS011;34170;54.364;18.582;2022-10-17T11:58:26;11.10;;;7.75;;
48363;SDS011;34170;54.364;18.582;2022-10-17T12:06:31;11.73;;;8.30;;
48363;SDS011;34170;54.364;18.582;2022-10-17T12:12:02;14.85;;;9.73;;
48363;SDS011;34170;54.364;18.582;2022-10-17T12:17:26;11.35;;;7.85;;
48363;SDS011;34170;54.364;18.582;2022-10-17T12:20:23;12.20;;;8.57;;
48363;SDS011;34170;54.364;18.582;2022-10-17T12:23:02;11.38;;;9.07;;
48363;SDS011;34170;54.364;18.582;2022-10-17T12:25:46;15.23;;;9.73;;
48363;SDS011;34170;54.364;18.582;2022-10-17T12:29:00;14.15;;;9.05;;
48363;SDS011;34170;54.364;18.582;2022-10-17T12:58:02;11.27;;;7.07;;
48363;SDS011;34170;54.364;18.582;2022-10-17T13:00:50;9.73;;;5.82;;
48363;SDS011;34170;54.364;18.582;2022-10-17T13:03:44;8.70;;;6.43;;
48363;SDS011;34170;54.364;18.582;2022-10-17T13:06:18;10.05;;;7.05;;
48363;SDS011;34170;54.364;18.582;2022-10-17T13:08:57;13.60;;;7.88;;
48363;SDS011;34170;54.364;18.582;2022-10-17T13:11:32;11.65;;;8.60;;
48363;SDS011;34170;54.364;18.582;2022-10-17T13:14:02;15.55;;;10.07;;
48363;SDS011;34170;54.364;18.582;2022-10-17T13:16:50;13.73;;;9.70;;
48363;SDS011;34170;54.364;18.582;2022-10-17T13:19:29;13.98;;;9.98;;
48363;SDS011;34170;54.364;18.582;2022-10-17T13:22:12;19.65;;;11.80;;
48363;SDS011;34170;54.364;18.582;2022-10-17T13:24:43;14.35;;;10.48;;
48363;SDS011;34170;54.364;18.582;2022-10-17T13:27:30;15.32;;;10.38;;
48363;SDS011;34170;54.364;18.582;2022-10-17T13:29:59;15.60;;;10.63;;
48363;SDS011;34170;54.364;18.582;2022-10-17T13:32:36;14.60;;;10.82;;
48363;SDS011;34170;54.364;18.582;2022-10-17T13:35:09;14.75;;;9.93;;
48363;SDS011;34170;54.364;18.582;2022-10-17T13:37:44;15.38;;;10.55;;
48363;SDS011;34170;54.364;18.582;2022-10-17T13:40:29;16.90;;;10.23;;
48363;SDS011;34170;54.364;18.582;2022-10-17T13:43:15;23.60;;;17.20;;
48363;SDS011;34170;54.364;18.582;2022-10-17T13:45:47;13.60;;;10.23;;
48363;SDS011;34170;54.364;18.582;2022-10-17T13:48:25;12.38;;;10.25;;
48363;SDS011;34170;54.364;18.582;2022-10-17T13:50:56;16.55;;;9.60;;
48363;SDS011;34170;54.364;18.582;2022-10-17T13:53:36;11.57;;;8.23;;
48363;SDS011;34170;54.364;18.582;2022-10-17T13:56:15;13.30;;;8.20;;
48363;SDS011;34170;54.364;18.582;2022-10-17T13:59:01;11.60;;;7.65;;
48363;SDS011;34170;54.364;18.582;2022-10-17T14:01:43;14.73;;;7.13;;
48363;SDS011;34170;54.364;18.582;2022-10-17T14:04:10;10.50;;;7.15;;
48363;SDS011;34170;54.364;18.582;2022-10-17T14:06:46;9.65;;;6.95;;
48363;SDS011;34170;54.364;18.582;2022-10-17T14:09:22;9.25;;;7.40;;
48363;SDS011;34170;54.364;18.582;2022-10-17T14:11:56;9.23;;;6.88;;
48363;SDS011;34170;54.364;18.582;2022-10-17T14:14:28;13.35;;;7.72;;
48363;SDS011;34170;54.364;18.582;2022-10-17T14:17:20;11.88;;;7.53;;
48363;SDS011;34170;54.364;18.582;2022-10-17T14:19:55;11.60;;;7.32;;
48363;SDS011;34170;54.364;18.582;2022-10-17T14:22:45;12.05;;;8.52;;
48363;SDS011;34170;54.364;18.582;2022-10-17T14:25:34;14.13;;;8.43;;
48363;SDS011;34170;54.364;18.582;2022-10-17T14:30:37;14.98;;;8.38;;
48363;SDS011;34170;54.364;18.582;2022-10-17T14:33:25;14.73;;;8.68;;
48363;SDS011;34170;54.364;18.582;2022-10-17T14:35:55;13.35;;;9.95;;
48363;SDS011;34170;54.364;18.582;2022-10-17T14:38:24;15.43;;;10.07;;
48363;SDS011;34170;54.364;18.582;2022-10-17T14:41:00;13.77;;;10.00;;
48363;SDS011;34170;54.364;18.582;2022-10-17T14:43:56;14.32;;;9.88;;
48363;SDS011;34170;54.364;18.582;2022-10-17T14:46:25;14.80;;;9.73;;
48363;SDS011;34170;54.364;18.582;2022-10-17T14:48:55;14.73;;;10.20;;
48363;SDS011;34170;54.364;18.582;2022-10-17T14:51:28;17.75;;;11.15;;
48363;SDS011;34170;54.364;18.582;2022-10-17T14:54:23;14.85;;;10.50;;
48363;SDS011;34170;54.364;18.582;2022-10-17T14:56:53;18.00;;;11.02;;
48363;SDS011;34170;54.364;18.582;2022-10-17T14:59:20;20.80;;;11.77;;
48363;SDS011;34170;54.364;18.582;2022-10-17T15:02:10;17.85;;;10.13;;
48363;SDS011;34170;54.364;18.582;2022-10-17T15:04:38;22.17;;;10.93;;
48363;SDS011;34170;54.364;18.582;2022-10-17T15:07:05;25.33;;;12.40;;
48363;SDS011;34170;54.364;18.582;2022-10-17T15:09:32;15.43;;;11.45;;
48363;SDS011;34170;54.364;18.582;2022-10-17T15:12:00;20.33;;;13.05;;
48363;SDS011;34170;54.364;18.582;2022-10-17T15:14:30;18.83;;;12.32;;
48363;SDS011;34170;54.364;18.582;2022-10-17T15:16:57;16.48;;;11.23;;
48363;SDS011;34170;54.364;18.582;2022-10-17T15:19:28;17.63;;;11.52;;
48363;SDS011;34170;54.364;18.582;2022-10-17T15:22:02;21.05;;;12.82;;
48363;SDS011;34170;54.364;18.582;2022-10-17T15:24:43;18.15;;;11.57;;
48363;SDS011;34170;54.364;18.582;2022-10-17T15:27:33;16.30;;;12.25;;
48363;SDS011;34170;54.364;18.582;2022-10-17T15:30:15;21.20;;;13.93;;
48363;SDS011;34170;54.364;18.582;2022-10-17T15:33:01;17.73;;;12.52;;
48363;SDS011;34170;54.364;18.582;2022-10-17T15:35:39;16.60;;;13.23;;
48363;SDS011;34170;54.364;18.582;2022-10-17T15:38:26;17.40;;;12.30;;
48363;SDS011;34170;54.364;18.582;2022-10-17T15:41:09;18.63;;;12.68;;
48363;SDS011;34170;54.364;18.582;2022-10-17T15:43:41;17.08;;;13.68;;
48363;SDS011;34170;54.364;18.582;2022-10-17T15:46:23;24.67;;;14.90;;
48363;SDS011;34170;54.364;18.582;2022-10-17T15:49:03;20.60;;;14.10;;
48363;SDS011;34170;54.364;18.582;2022-10-17T15:51:41;20.60;;;14.38;;
48363;SDS011;34170;54.364;18.582;2022-10-17T15:54:20;18.83;;;14.15;;
48363;SDS011;34170;54.364;18.582;2022-10-17T15:56:48;19.77;;;14.98;;
48363;SDS011;34170;54.364;18.582;2022-10-17T15:59:21;20.05;;;13.43;;
48363;SDS011;34170;54.364;18.582;2022-10-17T16:01:50;23.17;;;15.10;;
48363;SDS011;34170;54.364;18.582;2022-10-17T16:04:17;20.48;;;14.40;;
48363;SDS011;34170;54.364;18.582;2022-10-17T16:06:45;23.00;;;15.93;;
48363;SDS011;34170;54.364;18.582;2022-10-17T16:09:12;22.17;;;15.77;;
48363;SDS011;34170;54.364;18.582;2022-10-17T16:11:40;20.92;;;14.77;;
48363;SDS011;34170;54.364;18.582;2022-10-17T16:14:10;22.98;;;16.10;;
48363;SDS011;34170;54.364;18.582;2022-10-17T16:16:39;22.38;;;17.08;;
48363;SDS011;34170;54.364;18.582;2022-10-17T16:19:06;23.75;;;16.23;;
48363;SDS011;34170;54.364;18.582;2022-10-17T16:21:35;25.58;;;17.27;;
48363;SDS011;34170;54.364;18.582;2022-10-17T16:24:04;26.35;;;17.70;;
48363;SDS011;34170;54.364;18.582;2022-10-17T16:26:32;27.23;;;17.95;;
48363;SDS011;34170;54.364;18.582;2022-10-17T16:28:59;23.77;;;18.20;;
48363;SDS011;34170;54.364;18.582;2022-10-17T16:31:30;24.63;;;16.73;;
48363;SDS011;34170;54.364;18.582;2022-10-17T16:34:00;26.73;;;18.60;;
48363;SDS011;34170;54.364;18.582;2022-10-17T16:36:28;30.20;;;19.58;;
48363;SDS011;34170;54.364;18.582;2022-10-17T16:38:56;30.80;;;20.25;;
48363;SDS011;34170;54.364;18.582;2022-10-17T16:41:37;29.67;;;20.25;;
48363;SDS011;34170;54.364;18.582;2022-10-17T16:44:06;29.50;;;20.55;;
48363;SDS011;34170;54.364;18.582;2022-10-17T16:46:35;32.22;;;22.20;;
48363;SDS011;34170;54.364;18.582;2022-10-17T16:49:03;34.80;;;21.98;;
48363;SDS011;34170;54.364;18.582;2022-10-17T16:51:31;35.50;;;23.67;;
48363;SDS011;34170;54.364;18.582;2022-10-17T16:54:02;33.90;;;23.42;;
48363;SDS011;34170;54.364;18.582;2022-10-17T16:56:30;34.40;;;23.65;;
48363;SDS011;34170;54.364;18.582;2022-10-17T16:58:59;34.40;;;23.25;;
48363;SDS011;34170;54.364;18.582;2022-10-17T17:01:27;36.28;;;23.38;;
48363;SDS011;34170;54.364;18.582;2022-10-17T17:03:57;40.65;;;25.33;;
48363;SDS011;34170;54.364;18.582;2022-10-17T17:06:26;33.10;;;23.65;;
48363;SDS011;34170;54.364;18.582;2022-10-17T17:08:55;39.83;;;24.83;;
48363;SDS011;34170;54.364;18.582;2022-10-17T17:11:24;33.85;;;24.63;;
48363;SDS011;34170;54.364;18.582;2022-10-17T17:13:56;35.00;;;24.77;;
48363;SDS011;34170;54.364;18.582;2022-10-17T17:16:25;33.75;;;23.80;;
48363;SDS011;34170;54.364;18.582;2022-10-17T17:18:57;35.85;;;24.48;;